Dirección General De Aeronáutica Civil

Dirección Meteorológica de Chile - Servicios Climáticos

Informe Diario Temperatura y Precipitación Estaciones Automáticas

Datos Recientes de la Red
17 de Septiembre de 2021
Código Nombre Estación Datos Recientes Temperaturas Extremas Precipitación Total 24 Horas
Hora Tem.(°c) Hum.(%) Pre.(hPas) Hoy (17-09-2021) Ayer (16-09-2021) Hoy (17-09-2021) Ayer (16-09-2021)
Máxima Hora Mínima Hora Máxima Hora Mínima Hora Suma EMA Suma EMA
1 180005 Chacalluta, Arica Ap. 01:15 15.3 73 1,012.4 . 00:35 14.9 21:02 16.9 15:47 14.5 07:31 . . s/p s/p
2 180017 Putre 01:15 8.5 32 672.5 . 21:44 8.5 01:14 17.0 12:56 5.4 04:53 . . s/p s/p
3 180018 Defensa Civil, Arica 01:15 15.2 71 1,011.3 . 00:04 14.4 21:20 17.2 14:50 14.3 06:03 . . s/p s/p
4 180042 Cerro Sombrero, Arica .
5 200006 Diego Aracena Iquique Ap. 01:15 14.4 71 1,013.7 . 21:10 14.4 22:03 17.2 15:03 13.9 06:58 . . s/p s/p
6 200010 UNAP (Universidad Arturo Prat), Iquique 01:15 14.1 93 1,016.3 . 21:17 13.8 01:12 15.3 15:38 13.6 07:51 . . s/p s/p
7 220002 El Loa, Calama Ad. 01:14 7.2 20 775.3 . 21:00 5.8 00:44 23.7 15:26 -1.3 06:43 . . s/p s/p
8 230002 Universidad Católica del Norte, Antofagasta 01:15 13.7 77 1,015.8 . 23:45 13.4 21:06 16.3 16:06 10.6 07:17 . . s/p s/p
9 230004 Toconao 01:15 11.1 11 760.5 . 21:03 10.7 01:09 25.5 15:53 2.6 06:49 . . s/p s/p
10 230021 Llano de Chajnantor, observatorio APEX 01:10 -4.3 23 556.9 . 23:19 -7.0 22:49 1.7 12:05 -11.0 03:35 . . . .
11 230022 Mejillones 01:15 14.0 71 1,016.3 . 01:15 12.6 23:10 20.8 15:08 10.9 23:57 . . s/p s/p
12 240005 Cerro Paranal, observatorio astronómico 01:10 11.4 4 745.4 . 21:03 11.3 00:55 15.4 16:30 7.5 05:33 . . . .
13 250005 Taltal .
14 270001 Mataveri Isla de Pascua Ap. 23:15 17.0 77 1,021.0 . 19:00 17.0 23:11 21.2 13:26 14.0 05:08 . . s/p s/p
15 270008 Desierto de Atacama, Caldera Ad. 01:15 11.0 85 994.1 . 21:01 11.0 01:15 17.5 15:17 10.4 04:13 . . s/p s/p
16 270009 Copiapó Universidad de Atacama 01:15 9.5 86 975.6 . 21:00 9.5 00:54 23.1 16:22 8.1 06:13 . . s/p s/p
17 280010 Freirina Nicolasa .
18 290004 La Florida, La Serena Ad. 01:15 11.3 88 1,001.4 . 21:07 11.2 23:59 15.4 15:22 7.6 05:54 . . s/p s/p
19 290013 Cerro la Silla, observatorio astronómico 01:10 10.5 13 770.2 . 00:46 9.1 21:00 13.8 13:25 8.6 00:44 . . . .
20 300024 Ovalle Escuela Agrícola 01:15 8.0 90 982.3 . 21:00 7.4 00:12 22.0 16:16 4.2 06:45 . . s/p s/p
21 300034 El Tololo 01:15 10.2 22 791.8 . 23:20 8.9 00:47 17.3 14:10 8.6 21:12 . . s/p s/p
22 300046 Vicuña, Parque Los Pimientos 01:15 8.1 73 945.6 . 21:01 8.1 01:15 25.2 14:46 4.2 07:56 . . s/p s/p
23 300047 Monte Patria, Municipalidad 01:15 9.4 80 971.8 . 21:00 9.3 01:14 26.6 16:07 4.1 07:55 . . s/p s/p
24 310023 Canela Baja (Liceo Padre José Herde) 01:15 10.8 84 979.7 . 21:14 10.4 00:25 18.1 15:10 3.5 08:02 . . s/p s/p
25 310024 Liceo Samuel Román Rojas (Combarbalá) 01:15 12.7 48 911.3 . 21:16 12.6 00:34 26.4 14:28 10.6 07:30 . . s/p s/p
26 310040 Vivero Conaf, Illapel 01:15 9.7 86 981.8 . 21:02 8.3 23:53 23.0 14:20 2.4 08:22 . . s/p s/p
27 320019 San Felipe Escuela Agrícola 01:15 10.1 83 941.8 . 21:00 10.1 01:15 28.4 15:08 3.8 07:21 . . s/p s/p
28 320041 Viña del Mar Ad. (Torquemada) 01:15 10.6 83 1,003.7 . 21:00 9.7 00:38 17.0 18:02 5.6 07:55 . . s/p s/p
29 320045 Llay Llay, Las Peñas 01:15 9.7 86 969.9 . 21:00 9.7 01:00 25.6 15:50 4.2 08:42 . . s/p s/p
30 320049 Chincolco Liceo agrícola 01:15 5.8 100 942.1 . 21:00 5.6 01:11 25.6 15:06 2.0 07:27 . . s/p s/p
31 320051 Los Libertadores .
32 320056 Quintero, Climatológica 01:15 11.5 86 1,021.0 . 21:08 8.9 23:55 15.2 15:05 3.7 06:51 . . s/p s/p
33 320063 Zapallar Catapilco 01:15 12.1 85 1,010.3 . 23:06 11.6 21:02 19.1 13:54 1.3 04:59 . . s/p s/p
34 330006 Jardín Botánico (ex Parque Fauna), Viña del Mar 01:15 6.4 96 1,017.9 . 21:02 6.4 01:14 20.5 16:24 2.3 07:52 . . s/p s/p
35 330007 Rodelillo, Ad. 01:15 8.9 100 980.4 . 21:18 8.1 00:21 19.9 16:06 6.8 06:35 . . s/p s/p
36 330019 Eulogio Sánchez, Tobalaba Ad. 01:15 9.6 76 943.8 . 21:01 9.6 01:15 24.4 15:44 5.1 06:14 . . s/p s/p
37 330020 Quinta Normal, Santiago 01:25 9.5 84 958.0 . 21:05 9.5 01:23 24.9 15:09 3.6 07:55 . . s/p s/p
38 330021 Pudahuel Santiago 01:15 11.4 69 962.7 . 21:02 10.6 00:56 25.1 16:07 3.0 07:24 . . s/p s/p
39 330030 Santo Domingo, Ad. 01:14 9.0 100 1,011.2 . 21:00 9.0 01:14 16.3 14:03 3.3 07:52 . . s/p s/p
40 330031 Juan Fernández, Estación Meteorológica. 01:00 11.3 84 1,020.5 . 21:07 10.7 00:03 14.6 14:47 10.7 00:04 . . 0.1 0.1
41 330071 Talagante 01:15 9.4 94 972.0 . 21:01 9.4 23:45 24.5 15:20 1.8 07:39 . . s/p s/p
42 330075 Río Clarillo .
43 330076 Chorombo Hacienda 01:15 7.1 96 1,001.8 . 21:00 7.0 00:53 23.0 14:54 1.9 08:18 . . s/p s/p
44 330077 El Colorado 01:00 3.3 33 733.6 . 21:05 2.6 00:52 12.3 15:34 1.3 00:17 . . s/p s/p
45 330111 Lo Prado Cerro San Francisco 01:15 10.0 79 897.9 . 21:00 9.0 22:40 18.5 12:15 9.2 05:26 . . s/p 26.9
46 330112 San José Guayacán 01:15 6.7 76 913.8 . 21:06 6.7 01:15 24.2 13:06 3.8 07:46 . . s/p s/p
47 330113 El Paico 01:15 9.1 94 987.3 . 21:00 9.1 01:15 22.6 17:00 4.1 05:43 . . s/p s/p
48 330114 San Pablo - DASA 01:15 11.5 77 962.0 . 21:00 10.7 01:01 24.4 15:49 4.3 07:55 . . s/p s/p
49 330115 NOS Aguas Andinas .
50 330117 Las Vizcachas Aguas Andinas .
51 330118 Lo Pinto 01:15 9.9 73 959.9 . 21:00 9.9 01:15 26.7 16:21 2.2 07:37 . . s/p s/p
52 330121 Curacaví Ad. 01:15 8.0 93 995.2 . 21:00 8.0 01:14 24.0 14:51 3.4 07:56 . . s/p s/p
53 330122 Aguas Andinas, La Florida .
54 330160 El Milagro, Buin 01:15 7.5 94 967.5 . 21:00 7.2 01:06 24.4 16:02 2.4 07:59 . . s/p s/p
55 330161 San Antonio, Lo Zarate 01:15 11.1 90 1,007.3 . 21:36 11.0 01:05 17.4 15:16 2.7 06:36 . . 0.1 0.1
56 330162 Colina (Reg.) 01:15 10.5 60 931.5 . 21:21 10.2 01:03 23.9 16:14 7.2 07:50 . . s/p s/p
57 330163 Peldehue Ad. 01:15 8.6 66 940.0 . 21:00 8.6 01:14 25.7 16:09 3.0 06:33 . . s/p s/p
58 340031 General Freire, Curicó Ad. 01:15 8.8 86 992.4 . 21:03 8.8 01:13 20.4 17:01 3.9 08:03 . . s/p s/p
59 340045 Rancagua 01:15 8.3 79 961.7 . 21:02 8.2 01:03 22.2 16:39 1.4 07:54 . . s/p s/p
60 340048 Quimávida 01:15 8.8 81 982.6 . 21:03 8.3 01:00 23.4 17:54 3.1 07:29 . . s/p s/p
61 340066 Nilahue - La Quebrada 01:00 7.3 97 1,008.9 . 21:05 7.1 00:53 21.6 15:17 2.8 07:44 . . s/p s/p
62 340093 Portezuelo-Codelco 01:15 10.8 47 886.1 . 21:13 10.4 01:02 21.0 16:18 8.6 22:18 . . s/p s/p
63 340115 Pichilemu aeródromo 01:15 11.2 88 1,017.4 . 21:01 11.1 01:05 14.7 12:55 8.4 06:18 . . s/p s/p
64 350028 Panguilemo .
65 360011 General Bernardo O'Higgins, Chillán Ad. 23:47 4hrs 47min 39seg
66 360019 Carriel Sur, Concepción Ap. 01:15 10.1 83 1,020.0 . 21:00 10.0 22:05 14.7 13:58 4.4 08:10 . . 0.2 0.2
67 360042 Termas de Chillán 01:15 4.8 45 830.4 . 21:23 3.7 01:03 10.9 15:01 2.9 21:58 . . s/p s/p
68 360046 Chillán Mayulermo 01:15 4.3 98 972.6 . 21:15 4.3 01:15 19.6 16:48 2.2 07:38 . . s/p s/p
69 360047 Retiro Copihue 01:15 7.9 98 999.6 . 21:17 7.7 01:13 20.5 16:56 3.9 08:05 . . s/p s/p
70 370036 El Huertón liceo agrícola, Los Ángeles 01:15 7.5 93 . . 21:43 7.5 01:11 20.5 16:54 2.8 06:57 . . s/p s/p
71 370067 Angol, Húsares 22:30 6hrs 4min 39seg
72 380013 Maquehue, Temuco Ad. 01:15 8.9 89 1,010.5 . 21:01 8.8 01:12 16.6 16:45 1.3 05:23 . . s/p s/p
73 380018 Lonquimay 20:00 8hrs 34min 39seg
74 380029 La Araucanía Ad. 01:14 8.8 100 1,009.2 . 21:00 8.7 00:37 16.2 15:44 0.0 07:44 . . s/p s/p
75 380032 Rucamanque-UFRO 01:15 6.7 100 979.4 . 21:01 6.7 01:10 15.1 16:40 3.8 08:20 . . s/p s/p
76 380033 Maquehue-UFRO 01:15 8.7 92 1,011.9 . 21:03 8.7 01:15 16.9 16:12 1.0 06:08 . . s/p s/p
77 380063 Victoria (Reg.) 20:30 8hrs 4min 39seg
78 390006 Pichoy, Valdivia Ad. 01:15 9.6 91 1,018.1 . 01:00 7.8 21:44 14.0 16:50 2.4 04:38 . . s/p s/p
79 390028 Villarrica .
80 390029 Panguipulli 01:15 8.5 88 992.3 . 21:29 8.4 01:14 18.1 16:10 1.5 07:43 . . 0.1 0.1
81 390043 Corral ESSAL 01:15 10.1 97 1,019.8 . 01:12 9.5 21:03 12.8 14:52 8.1 09:01 . . 1.5 1.5
82 400009 Cañal Bajo, Osorno Ad. 01:15 9.7 87 1,012.3 . 21:00 9.5 00:48 13.8 15:20 4.6 08:31 . . s/p s/p
83 400013 Juan Kalt Bode (Fundación Adolfo Matthei) .
84 400033 San Juan de la Costa, Bahía Mansa .
85 410005 El Tepual Puerto Montt Ap. 01:15 8.9 92 1,007.2 . 21:14 8.9 01:15 13.9 14:02 8.8 05:06 . . 0.4 0.4
86 410026 Ancud Liceo Agrícola 18:45 1dia(s) 9hrs 49min 39seg
87 410027 Escuela Mirasol, Puerto Montt 01:15 9.3 91 1,005.4 . 21:08 9.3 01:15 14.8 15:00 9.0 00:51 . . 0.5 0.5
88 410040 Puerto Varas ESSAL 01:15 10.2 84 1,010.9 . 21:25 10.0 23:40 14.0 15:19 9.9 05:20 . . 0.1 0.1
89 420015 Nueva Chaitén 01:14 10.2 97 1,014.9 . 22:43 9.6 21:00 11.2 15:04 8.9 02:26 . . 7.6 7.6
90 430001 Quellón Ad. 01:15 8.2 95 1,014.0 . 21:00 8.1 01:10 14.2 14:01 9.5 22:35 . . 5.2 5.0
91 430002 Futaleufú Ad. 01:15 7.9 86 972.4 . 21:09 7.6 01:08 14.0 14:27 6.4 07:26 . . 0.8 0.8
92 430009 Melinka Ad. 01:15 8.5 94 1,012.8 . 22:18 8.5 01:09 11.8 13:06 9.5 00:05 . . 15.2 15.2
93 440004 Cisnes Puyuhuapi .
94 450001 Puerto Aysén Ad. 01:15 6.4 97 1,010.8 . 21:03 5.1 00:47 12.8 12:31 8.3 20:58 . . 8.7 8.7
95 450004 Teniente Vidal, Coyhaique Ad. 01:14 5.0 89 974.7 . 21:14 5.0 00:30 14.1 12:48 6.0 20:59 . . 1.0 1.0
96 450022 Mirador Marchant, Coyhaique 01:15 4.7 89 960.9 . 23:06 4.0 01:04 11.0 13:49 5.2 20:57 . . 5.4 5.4
97 480002 Villa O"Higgins subcomisaría 01:15 4.8 69 973.9 . 22:23 4.4 01:12 10.4 13:10 4.7 06:51 . . 1.8 1.8
98 510005 Teniente Gallardo, Puerto Natales Ad. 01:15 -0.7 97 995.3 . 22:33 -1.0 01:07 6.4 17:15 -0.4 23:14 . . s/p s/p
99 520006 Carlos Ibañez, Punta Arenas Ap. 01:15 2.2 95 1,000.0 . 22:08 2.1 23:22 3.0 20:41 -1.5 05:57 . . 4.4 4.4
100 520012 Instituto de la Patagonia (Jorge Schytte) 01:15 1.8 95 1,004.0 . 23:48 1.2 21:12 2.0 19:34 -2.0 06:45 . . 11.2 11.2
101 520014 Punta Arenas Unidad Aeropolicial 01:15 1.9 93 998.1 . 01:08 1.2 21:00 2.1 09:35 -0.6 02:24 . . 8.7 8.7
102 520015 Magallanes Villa Tehuelche 01:15 -2.0 98 983.2 . 21:09 -2.1 01:09 3.1 18:17 -0.9 04:13 . . 2.0 2.0
103 520030 Cerro Sombrero, Estrecho de magallanes 01:15 1.6 96 995.8 . 23:21 1.3 21:04 2.3 11:57 -5.7 07:06 . . 4.4 4.4
104 530005 Fuentes Martínez, Porvenir Ad. 01:15 1.7 97 1,001.4 . 23:43 1.5 00:35 2.6 11:10 -4.1 06:37 . . 6.8 6.8
105 530008 Escuela Alberto Hurtado .
106 540008 Pampa Guanaco, Tierra del Fuego 01:15 -0.6 98 . . 21:04 -0.7 00:00 2.8 15:08 -5.6 08:01 . . s/p s/p
107 550001 Guardiamarina Zañartu, Pto Williams Ad. 01:15 1.6 76 1,005.2 . 21:17 1.5 01:13 5.4 13:39 -1.6 21:35 . . 1.8 1.8
108 950001 C.M.A. Eduardo Frei Montalva, Antártica 01:14 -2.8 91 987.5 . 01:11 -4.8 22:02 -3.8 16:48 -8.3 09:46 . . s/p s/p
Informe generado el 17-09-2021 04:34
Requerimiento: RE5023